createdAt,value
2019-01-27T00:01:34.055Z,15.40
2019-01-27T00:04:04.543Z,16.10
2019-01-27T00:06:35.044Z,14.87
2019-01-27T00:09:09.836Z,12.67
2019-01-27T00:11:40.230Z,12.97
2019-01-27T00:14:10.624Z,9.83
2019-01-27T00:16:43.141Z,9.33
2019-01-27T00:19:13.500Z,8.50
2019-01-27T00:21:45.427Z,12.33
2019-01-27T00:24:15.751Z,11.20
2019-01-27T00:26:46.134Z,11.43
2019-01-27T00:29:16.445Z,12.50
2019-01-27T00:31:46.829Z,15.07
2019-01-27T00:34:21.229Z,14.37
2019-01-27T00:36:52.560Z,17.00
2019-01-27T00:39:22.979Z,16.93
2019-01-27T00:41:53.340Z,15.10
2019-01-27T00:44:23.667Z,17.87
2019-01-27T00:46:53.996Z,18.53
2019-01-27T00:49:27.494Z,13.87
2019-01-27T00:51:57.980Z,17.40
2019-01-27T00:54:28.445Z,12.30
2019-01-27T00:56:58.884Z,16.87
2019-01-27T00:59:31.162Z,21.20
2019-01-27T01:02:01.680Z,17.20
2019-01-27T01:04:32.177Z,20.73
2019-01-27T01:07:02.656Z,17.50
2019-01-27T01:09:33.050Z,13.73
2019-01-27T01:12:03.442Z,18.47
2019-01-27T01:14:33.932Z,11.87
2019-01-27T01:17:04.669Z,17.70
2019-01-27T01:19:35.037Z,16.53
2019-01-27T01:22:05.821Z,13.00
2019-01-27T01:24:36.175Z,13.80
2019-01-27T01:27:06.645Z,21.83
2019-01-27T01:29:37.035Z,18.47
2019-01-27T01:32:07.393Z,16.00
2019-01-27T01:34:37.784Z,13.03
2019-01-27T01:37:08.228Z,13.23
2019-01-27T01:39:38.587Z,9.53
2019-01-27T01:42:09.091Z,17.03
2019-01-27T01:44:39.451Z,10.73
2019-01-27T01:47:09.777Z,14.00
2019-01-27T01:49:40.091Z,11.20
2019-01-27T01:52:10.424Z,15.77
2019-01-27T01:54:40.776Z,8.93
2019-01-27T01:57:11.138Z,13.80
2019-01-27T01:59:41.484Z,9.43
2019-01-27T02:02:11.844Z,13.57
2019-01-27T02:04:42.661Z,14.60
2019-01-27T02:07:13.049Z,11.90
2019-01-27T02:09:43.375Z,14.60
2019-01-27T02:12:13.903Z,18.17
2019-01-27T02:14:44.303Z,15.13
2019-01-27T02:17:14.646Z,19.93
2019-01-27T02:19:45.135Z,18.33
2019-01-27T02:22:15.579Z,25.70
2019-01-27T02:24:46.020Z,20.53
2019-01-27T02:27:16.395Z,22.47
2019-01-27T02:29:51.420Z,22.10
2019-01-27T02:32:21.773Z,30.97
2019-01-27T02:34:52.170Z,23.90
2019-01-27T02:37:22.591Z,31.43
2019-01-27T02:39:53.064Z,29.20
2019-01-27T02:42:23.788Z,23.87
2019-01-27T02:44:54.159Z,19.97
2019-01-27T02:47:24.974Z,25.97
2019-01-27T02:49:55.411Z,32.43
2019-01-27T02:52:25.728Z,30.87
2019-01-27T02:54:57.387Z,26.77
2019-01-27T02:57:27.746Z,21.20
2019-01-27T02:59:58.093Z,23.67
2019-01-27T03:02:30.117Z,19.53
2019-01-27T03:05:02.071Z,19.07
2019-01-27T03:07:36.434Z,23.73
2019-01-27T03:10:11.264Z,23.87
2019-01-27T03:12:41.574Z,25.40
2019-01-27T03:15:12.405Z,15.20
2019-01-27T03:17:43.363Z,16.60
2019-01-27T03:20:13.858Z,20.53
2019-01-27T03:22:44.251Z,14.87
2019-01-27T03:25:14.643Z,19.47
2019-01-27T03:27:46.094Z,16.77
2019-01-27T03:30:18.772Z,15.17
2019-01-27T03:32:49.446Z,20.57
2019-01-27T03:35:20.040Z,17.83
2019-01-27T03:37:50.386Z,13.77
2019-01-27T03:40:20.958Z,21.40
2019-01-27T03:42:52.306Z,18.90
2019-01-27T03:45:24.454Z,25.63
2019-01-27T03:47:54.823Z,24.57
2019-01-27T03:50:25.372Z,18.80
2019-01-27T03:52:56.435Z,22.23
2019-01-27T03:55:26.863Z,23.67
2019-01-27T03:57:57.158Z,22.00
2019-01-27T04:00:27.661Z,31.40
2019-01-27T04:02:59.111Z,25.80
2019-01-27T04:05:29.413Z,31.47
2019-01-27T04:07:59.754Z,28.50
2019-01-27T04:10:30.134Z,25.30
2019-01-27T04:13:00.459Z,30.23
2019-01-27T04:15:30.802Z,36.30
2019-01-27T04:18:01.218Z,37.03
2019-01-27T04:20:31.867Z,28.53
2019-01-27T04:23:02.295Z,32.50
2019-01-27T04:25:32.692Z,26.43
2019-01-27T04:28:03.037Z,37.43
2019-01-27T04:30:35.495Z,43.10
2019-01-27T04:33:06.007Z,41.90
2019-01-27T04:35:37.018Z,40.57
2019-01-27T04:38:07.347Z,37.37
2019-01-27T04:40:37.624Z,26.03
2019-01-27T04:43:09.005Z,38.90
2019-01-27T04:45:39.446Z,31.33
2019-01-27T04:48:10.197Z,26.70
2019-01-27T04:50:40.651Z,22.80
2019-01-27T04:53:11.027Z,32.40
2019-01-27T04:55:41.539Z,30.70
2019-01-27T04:58:11.945Z,27.53
2019-01-27T05:00:43.870Z,23.43
2019-01-27T05:03:33.402Z,28.57
2019-01-27T05:06:03.843Z,25.83
2019-01-27T05:08:34.225Z,21.00
2019-01-27T05:11:04.646Z,30.40
2019-01-27T05:13:34.940Z,30.30
2019-01-27T05:16:05.249Z,30.03
2019-01-27T05:18:35.659Z,22.50
2019-01-27T05:21:05.995Z,30.10
2019-01-27T05:23:36.378Z,30.70
2019-01-27T05:26:07.165Z,32.50
2019-01-27T05:28:37.503Z,16.33
2019-01-27T05:31:08.045Z,28.03
2019-01-27T05:33:38.579Z,33.13
2019-01-27T05:36:11.639Z,23.53
2019-01-27T05:38:42.038Z,23.40
2019-01-27T05:41:13.784Z,23.77
2019-01-27T05:43:44.356Z,25.87
2019-01-27T05:46:14.730Z,26.93
2019-01-27T05:48:45.497Z,20.93
2019-01-27T05:51:15.828Z,18.40
2019-01-27T05:53:46.528Z,21.73
2019-01-27T05:56:16.886Z,27.00
2019-01-27T05:58:47.301Z,25.87
2019-01-27T06:01:18.102Z,28.17
2019-01-27T06:03:50.905Z,24.17
2019-01-27T06:06:21.363Z,19.30
2019-01-27T06:08:51.839Z,21.47
2019-01-27T06:11:22.521Z,21.70
2019-01-27T06:13:53.017Z,20.57
2019-01-27T06:16:23.511Z,30.67
2019-01-27T06:18:53.863Z,24.17
2019-01-27T06:21:24.283Z,21.73
2019-01-27T06:23:55.577Z,21.07
2019-01-27T06:26:25.925Z,28.00
2019-01-27T06:28:56.340Z,32.03
2019-01-27T06:31:26.743Z,24.80
2019-01-27T06:34:08.253Z,22.63
2019-01-27T06:36:38.787Z,18.37
2019-01-27T06:39:10.441Z,24.43
2019-01-27T06:41:41.023Z,24.43
2019-01-27T06:44:11.366Z,19.20
2019-01-27T06:46:41.841Z,29.63
2019-01-27T06:49:12.159Z,26.83
2019-01-27T06:51:42.677Z,28.87
2019-01-27T06:54:14.129Z,26.23
2019-01-27T06:56:44.412Z,26.20
2019-01-27T06:59:46.194Z,28.73
2019-01-27T07:02:35.737Z,19.17
2019-01-27T07:05:32.985Z,23.13
2019-01-27T07:08:08.906Z,21.10
2019-01-27T07:11:01.006Z,14.83
2019-01-27T07:13:51.546Z,27.53
2019-01-27T07:16:39.755Z,16.03
2019-01-27T07:19:46.942Z,18.37
2019-01-27T07:22:35.544Z,15.13
2019-01-27T07:25:31.689Z,13.80
2019-01-27T07:28:27.857Z,19.53
2019-01-27T07:31:16.083Z,11.37
2019-01-27T07:34:04.436Z,13.27
2019-01-27T07:36:57.075Z,14.60
2019-01-27T07:39:55.478Z,17.03
2019-01-27T07:42:43.296Z,17.63
2019-01-27T07:45:48.541Z,21.20
2019-01-27T07:48:36.412Z,17.07
2019-01-27T07:51:13.979Z,17.93
2019-01-27T07:54:21.450Z,23.17
2019-01-27T07:57:18.348Z,23.83
2019-01-27T08:00:12.783Z,28.73
2019-01-27T08:03:12.143Z,30.10
2019-01-27T08:06:05.718Z,22.70
2019-01-27T08:08:57.144Z,33.57
2019-01-27T08:11:49.642Z,23.90
2019-01-27T08:14:39.176Z,20.53
2019-01-27T08:17:34.510Z,28.77
2019-01-27T08:20:23.038Z,17.13
2019-01-27T08:23:04.105Z,16.23
2019-01-27T08:25:39.854Z,19.43
2019-01-27T08:28:27.962Z,21.20
2019-01-27T08:31:16.080Z,20.70
2019-01-27T08:34:05.462Z,25.70
2019-01-27T08:36:55.442Z,19.30
2019-01-27T08:39:38.284Z,22.20
2019-01-27T08:42:30.157Z,29.97
2019-01-27T08:45:16.004Z,30.93
2019-01-27T08:47:47.402Z,25.13
2019-01-27T08:50:28.319Z,24.07
2019-01-27T08:52:59.860Z,23.93
2019-01-27T08:55:34.955Z,18.77
2019-01-27T08:58:18.492Z,23.83
2019-01-27T09:01:08.891Z,27.90
2019-01-27T09:04:08.297Z,21.60
2019-01-27T09:06:49.604Z,28.93
2019-01-27T09:09:44.646Z,26.90
2019-01-27T09:12:26.886Z,21.30
2019-01-27T09:15:16.389Z,19.27
2019-01-27T09:18:04.550Z,33.70
2019-01-27T09:20:59.870Z,33.03
2019-01-27T09:23:43.488Z,27.53
2019-01-27T09:26:38.627Z,25.50
2019-01-27T09:29:24.643Z,18.53
2019-01-27T09:32:14.109Z,27.10
2019-01-27T09:35:06.436Z,32.97
2019-01-27T09:38:03.394Z,18.73
2019-01-27T09:40:55.887Z,24.17
2019-01-27T09:43:43.091Z,35.33
2019-01-27T09:46:27.033Z,26.30
2019-01-27T09:49:02.276Z,36.70
2019-01-27T09:51:54.541Z,36.93
2019-01-27T09:54:41.798Z,27.90
2019-01-27T09:57:30.337Z,25.63
2019-01-27T10:00:11.804Z,27.67
2019-01-27T10:03:00.169Z,18.10
2019-01-27T10:06:06.676Z,26.83
2019-01-27T10:08:48.501Z,27.70
2019-01-27T10:11:40.814Z,19.23
2019-01-27T10:14:23.306Z,20.83
2019-01-27T10:17:11.479Z,21.00
2019-01-27T10:19:54.903Z,28.03
2019-01-27T10:22:47.186Z,18.13
2019-01-27T10:25:28.794Z,24.27
2019-01-27T10:28:21.397Z,23.47
2019-01-27T10:31:12.429Z,25.07
2019-01-27T10:34:01.829Z,21.50
2019-01-27T10:36:47.076Z,27.83
2019-01-27T10:39:27.598Z,26.87
2019-01-27T10:42:14.879Z,22.93
2019-01-27T10:45:10.267Z,16.67
2019-01-27T10:48:08.715Z,20.33
2019-01-27T10:50:58.020Z,17.97
2019-01-27T10:53:47.667Z,23.10
2019-01-27T10:56:43.007Z,20.03
2019-01-27T10:59:38.200Z,22.03
2019-01-27T11:02:36.713Z,25.10
2019-01-27T11:05:17.619Z,27.77
2019-01-27T11:08:22.064Z,24.13
2019-01-27T11:11:20.432Z,29.80
2019-01-27T11:14:09.805Z,19.27
2019-01-27T11:17:17.420Z,26.50
2019-01-27T11:20:15.690Z,33.20
2019-01-27T11:23:07.462Z,29.07
2019-01-27T11:26:00.756Z,23.87
2019-01-27T11:28:54.382Z,27.13
2019-01-27T11:31:33.593Z,29.73
2019-01-27T11:34:24.327Z,23.43
2019-01-27T11:37:29.013Z,15.97
2019-01-27T11:40:14.539Z,19.57
2019-01-27T11:43:03.248Z,19.77
2019-01-27T11:45:52.685Z,18.80
2019-01-27T11:48:33.873Z,21.00
2019-01-27T11:51:24.979Z,22.80
2019-01-27T11:53:55.492Z,20.00
2019-01-27T11:56:26.073Z,19.17
2019-01-27T11:58:56.577Z,26.13
2019-01-27T12:01:28.364Z,26.47
2019-01-27T12:03:58.938Z,17.40
2019-01-27T12:06:32.145Z,23.90
2019-01-27T12:09:02.988Z,29.27
2019-01-27T12:11:35.329Z,21.03
2019-01-27T12:14:06.282Z,23.03
2019-01-27T12:16:36.668Z,19.10
2019-01-27T12:19:07.104Z,32.87
2019-01-27T12:21:37.581Z,18.33
2019-01-27T12:24:08.073Z,21.10
2019-01-27T12:26:38.414Z,17.77
2019-01-27T12:29:08.901Z,19.87
2019-01-27T12:31:39.341Z,24.17
2019-01-27T12:34:09.824Z,22.10
2019-01-27T12:40:41.645Z,13.43
2019-01-27T12:43:43.477Z,22.67
2019-01-27T12:46:57.268Z,20.77
2019-01-27T12:49:26.737Z,17.73
2019-01-27T12:52:10.099Z,15.80
2019-01-27T12:54:44.047Z,13.93
2019-01-27T12:57:15.253Z,16.77
2019-01-27T12:59:51.095Z,19.57
2019-01-27T13:02:22.059Z,21.57
2019-01-27T13:04:54.150Z,20.33
2019-01-27T13:07:25.571Z,16.27
2019-01-27T13:09:58.684Z,18.80
2019-01-27T13:12:29.250Z,18.33
2019-01-27T13:14:59.655Z,25.33
2019-01-27T13:17:30.529Z,32.20
2019-01-27T13:20:01.030Z,27.57
2019-01-27T13:22:31.411Z,32.60
2019-01-27T13:25:02.004Z,22.07
2019-01-27T13:27:37.920Z,14.20
2019-01-27T13:30:12.626Z,27.20
2019-01-27T13:32:43.421Z,25.30
2019-01-27T13:35:14.252Z,27.13
2019-01-27T13:37:46.724Z,39.40
2019-01-27T13:40:19.295Z,29.33
2019-01-27T13:42:49.866Z,27.00
2019-01-27T13:45:22.685Z,24.50
2019-01-27T13:47:53.001Z,17.23
2019-01-27T13:50:23.325Z,19.10
2019-01-27T13:52:55.225Z,15.10
2019-01-27T13:55:28.147Z,16.77
2019-01-27T13:58:01.165Z,14.80
2019-01-27T14:00:34.778Z,23.10
2019-01-27T14:03:05.330Z,18.17
2019-01-27T14:05:35.788Z,14.37
2019-01-27T14:08:07.063Z,20.03
2019-01-27T14:10:39.091Z,14.10
2019-01-27T14:13:09.709Z,18.93
2019-01-27T14:15:40.671Z,15.27
2019-01-27T14:18:11.365Z,14.07
2019-01-27T14:20:42.030Z,11.60
2019-01-27T14:23:13.951Z,10.77
2019-01-27T14:25:48.440Z,9.83
2019-01-27T14:28:19.340Z,14.27
2019-01-27T14:30:50.893Z,11.53
2019-01-27T14:33:21.369Z,16.97
2019-01-27T14:35:52.741Z,8.03
2019-01-27T14:38:23.334Z,14.00
2019-01-27T14:40:53.805Z,20.80
2019-01-27T14:43:24.617Z,13.00
2019-01-27T14:45:57.421Z,13.10
2019-01-27T14:48:28.731Z,13.80
2019-01-27T14:50:59.207Z,13.20
2019-01-27T14:53:29.720Z,15.27
2019-01-27T14:56:01.620Z,7.23
2019-01-27T14:58:35.237Z,9.50
2019-01-27T15:01:06.150Z,8.90
2019-01-27T15:03:36.648Z,15.67
2019-01-27T15:06:07.155Z,10.57
2019-01-27T15:08:37.624Z,10.90
2019-01-27T15:11:10.805Z,10.63
2019-01-27T15:13:41.261Z,12.97
2019-01-27T15:16:11.602Z,13.43
2019-01-27T15:18:42.068Z,13.10
2019-01-27T15:21:21.416Z,13.27
2019-01-27T15:23:51.804Z,12.03
2019-01-27T15:26:22.171Z,14.60
2019-01-27T15:28:52.552Z,18.97
2019-01-27T15:31:22.904Z,18.73
2019-01-27T15:33:53.324Z,21.60
2019-01-27T15:36:23.612Z,21.83
2019-01-27T15:38:55.164Z,17.43
2019-01-27T15:41:27.045Z,27.97
2019-01-27T15:43:57.473Z,16.57
2019-01-27T15:46:27.873Z,16.83
2019-01-27T15:48:58.286Z,12.93
2019-01-27T15:51:28.703Z,17.93
2019-01-27T15:53:59.019Z,25.97
2019-01-27T15:56:29.545Z,17.67
2019-01-27T15:59:00.055Z,23.57
2019-01-27T16:01:33.091Z,25.00
2019-01-27T16:04:03.551Z,27.27
2019-01-27T16:06:33.879Z,27.90
2019-01-27T16:09:06.100Z,13.90
2019-01-27T16:11:37.190Z,23.43
2019-01-27T16:14:07.626Z,23.60
2019-01-27T16:16:38.060Z,10.60
2019-01-27T16:19:08.479Z,21.07
2019-01-27T16:21:38.796Z,7.57
2019-01-27T16:24:18.653Z,10.83
2019-01-27T16:26:50.102Z,13.17
2019-01-27T16:29:32.415Z,18.63
2019-01-27T16:32:10.374Z,12.30
2019-01-27T16:34:44.849Z,24.07
2019-01-27T16:37:15.280Z,17.17
2019-01-27T16:39:45.587Z,14.80
2019-01-27T16:42:16.013Z,14.80
2019-01-27T16:44:46.300Z,20.53
2019-01-27T16:47:18.939Z,12.27
2019-01-27T16:49:48.717Z,23.37
2019-01-27T16:52:19.159Z,21.17
2019-01-27T16:54:49.459Z,17.37
2019-01-27T16:57:19.696Z,28.70
2019-01-27T16:59:50.031Z,24.20
2019-01-27T17:02:20.449Z,18.37
2019-01-27T17:04:50.847Z,22.20
2019-01-27T17:07:21.204Z,16.83
2019-01-27T17:09:51.549Z,18.77
2019-01-27T17:12:21.871Z,13.23
2019-01-27T17:14:52.178Z,20.10
2019-01-27T17:17:22.504Z,17.73
2019-01-27T17:19:52.836Z,26.07
2019-01-27T17:22:23.571Z,21.07
2019-01-27T17:24:54.050Z,14.97
2019-01-27T17:27:26.030Z,22.63
2019-01-27T17:29:56.328Z,17.43
2019-01-27T17:32:26.623Z,25.73
2019-01-27T17:34:57.080Z,27.77
2019-01-27T17:37:27.376Z,19.13
2019-01-27T17:39:57.780Z,22.60
2019-01-27T17:42:28.179Z,21.00
2019-01-27T17:44:58.472Z,28.20
2019-01-27T17:47:28.840Z,20.90
2019-01-27T17:50:01.132Z,19.63
2019-01-27T17:52:31.965Z,19.20
2019-01-27T17:55:02.525Z,16.33
2019-01-27T17:57:51.075Z,24.90
2019-01-27T18:00:49.329Z,20.40
2019-01-27T18:03:30.357Z,23.10
2019-01-27T18:06:14.045Z,13.53
2019-01-27T18:09:05.544Z,23.63
2019-01-27T18:11:41.072Z,19.13
2019-01-27T18:14:27.942Z,23.50
2019-01-27T18:16:58.369Z,14.20
2019-01-27T18:19:29.033Z,18.00
2019-01-27T18:21:59.578Z,14.53
2019-01-27T18:24:30.042Z,21.80
2019-01-27T18:27:00.593Z,15.87
2019-01-27T18:29:31.112Z,28.47
2019-01-27T18:32:03.741Z,15.37
2019-01-27T18:34:34.350Z,14.77
2019-01-27T18:37:05.754Z,15.93
2019-01-27T18:39:37.529Z,20.00
2019-01-27T18:42:07.956Z,22.40
2019-01-27T18:44:38.474Z,16.60
2019-01-27T18:47:08.999Z,18.00
2019-01-27T18:49:39.562Z,15.43
2019-01-27T18:52:10.001Z,21.73
2019-01-27T18:54:59.463Z,21.77
2019-01-27T18:57:38.215Z,24.37
2019-01-27T19:00:40.072Z,18.57
2019-01-27T19:03:34.049Z,15.63
2019-01-27T19:06:12.788Z,19.67
2019-01-27T19:09:00.192Z,13.33
2019-01-27T19:11:55.530Z,25.00
2019-01-27T19:14:59.847Z,20.47
2019-01-27T19:17:52.265Z,24.10
2019-01-27T19:20:40.576Z,22.60
2019-01-27T19:23:30.200Z,21.60
2019-01-27T19:26:09.802Z,20.67
2019-01-27T19:28:58.052Z,20.97
2019-01-27T19:31:36.115Z,25.10
2019-01-27T19:34:32.649Z,18.07
2019-01-27T19:37:19.012Z,27.20
2019-01-27T19:40:26.611Z,23.33
2019-01-27T19:43:06.287Z,29.57
2019-01-27T19:45:52.983Z,21.63
2019-01-27T19:48:46.348Z,18.13
2019-01-27T19:51:35.821Z,23.77
2019-01-27T19:54:43.394Z,24.00
2019-01-27T19:57:47.987Z,21.27
2019-01-27T20:00:55.670Z,23.93
2019-01-27T20:03:44.963Z,20.27
2019-01-27T20:06:30.386Z,23.70
2019-01-27T20:09:25.683Z,22.77
2019-01-27T20:12:04.509Z,26.27
2019-01-27T20:14:53.251Z,24.97
2019-01-27T20:17:51.477Z,20.83
2019-01-27T20:20:46.625Z,21.87
2019-01-27T20:23:48.082Z,24.13
2019-01-27T20:26:52.724Z,33.47
2019-01-27T20:29:40.827Z,30.00
2019-01-27T20:32:32.832Z,25.60
2019-01-27T20:35:13.057Z,30.83
2019-01-27T20:38:06.260Z,24.63
2019-01-27T20:40:54.151Z,18.33
2019-01-27T20:43:44.734Z,16.60
2019-01-27T20:46:34.240Z,17.03
2019-01-27T20:49:21.973Z,12.00
2019-01-27T20:52:12.255Z,27.40
2019-01-27T20:55:01.586Z,26.30
2019-01-27T20:57:44.515Z,27.40
2019-01-27T21:00:32.859Z,20.17
2019-01-27T21:03:11.239Z,22.17
2019-01-27T21:05:48.517Z,13.87
2019-01-27T21:08:26.056Z,22.50
2019-01-27T21:11:24.537Z,22.07
2019-01-27T21:14:16.896Z,27.30
2019-01-27T21:16:58.989Z,24.60
2019-01-27T21:19:33.743Z,25.07
2019-01-27T21:22:04.151Z,18.73
2019-01-27T21:24:34.918Z,33.83
2019-01-27T21:27:06.607Z,31.87
2019-01-27T21:29:37.238Z,29.43
2019-01-27T21:32:07.723Z,22.83
2019-01-27T21:34:38.116Z,39.10
2019-01-27T21:37:08.606Z,34.57
2019-01-27T21:39:38.971Z,37.07
2019-01-27T21:42:10.360Z,34.57
2019-01-27T21:44:40.736Z,31.30
2019-01-27T21:47:11.047Z,27.77
2019-01-27T21:49:41.351Z,36.70
2019-01-27T21:52:11.829Z,37.47
2019-01-27T21:54:42.093Z,43.67
2019-01-27T21:57:12.437Z,53.93
2019-01-27T21:59:42.731Z,48.67
2019-01-27T22:02:13.129Z,45.10
2019-01-27T22:04:43.591Z,59.47
2019-01-27T22:07:13.953Z,61.50
2019-01-27T22:09:44.210Z,42.07
2019-01-27T22:12:14.587Z,37.53
2019-01-27T22:14:44.863Z,31.03
2019-01-27T22:17:15.193Z,33.93
2019-01-27T22:19:47.936Z,38.63
2019-01-27T22:22:18.319Z,34.27
2019-01-27T22:24:59.529Z,36.97
2019-01-27T22:27:29.989Z,35.53
2019-01-27T22:30:18.027Z,45.33
2019-01-27T22:32:48.348Z,49.57
2019-01-27T22:35:21.376Z,34.80
2019-01-27T22:37:53.458Z,26.17
2019-01-27T22:40:33.222Z,28.57
2019-01-27T22:43:03.579Z,29.80
2019-01-27T22:45:35.492Z,30.00
2019-01-27T22:48:05.853Z,35.33
2019-01-27T22:50:36.178Z,32.53
2019-01-27T22:53:10.687Z,21.27
2019-01-27T22:55:40.991Z,33.63
2019-01-27T22:58:11.433Z,19.70
2019-01-27T23:01:01.546Z,24.70
2019-01-27T23:03:40.362Z,21.63
2019-01-27T23:06:18.940Z,27.67
2019-01-27T23:08:49.310Z,21.87
2019-01-27T23:11:20.457Z,27.30
2019-01-27T23:13:52.604Z,12.73
2019-01-27T23:16:22.909Z,18.20
2019-01-27T23:18:53.331Z,15.13
2019-01-27T23:21:25.518Z,11.47
2019-01-27T23:23:58.059Z,17.37
2019-01-27T23:26:28.447Z,16.00
2019-01-27T23:29:00.247Z,11.83
2019-01-27T23:31:30.770Z,15.60
2019-01-27T23:34:02.043Z,12.23
2019-01-27T23:36:32.496Z,20.00
2019-01-27T23:39:02.814Z,14.43
2019-01-27T23:41:34.754Z,11.37
2019-01-27T23:44:05.128Z,12.27
2019-01-27T23:46:35.854Z,17.37
2019-01-27T23:49:06.204Z,10.17
2019-01-27T23:51:39.566Z,8.80
2019-01-27T23:54:09.859Z,14.57
2019-01-27T23:56:40.245Z,14.53
2019-01-27T23:59:10.609Z,17.53
